Symerton, Illinois
Current Conditions -  °F | °C
As of 5:55 AM on Sunday 21 Dec 2014 (Local Time) from KJOT Reporting Station
Overcast Overcast  
Wind Chill: 26°   Ceiling: 3400
Heat Index: 32°   Visibility: 7mi
Dew Point: 28°   Wind: 7mph
Humidity: 85%   Direction: 140°SE
Pressure: 30.22"   Gusts: NA
Location:  41.3199°N, 88.0518°W
Report Text: KJOT 211155Z AUTO 14006KT 7SM OVC034 00/M02 A3022 RMK AO2 T00001023 10000 20000
Loading
Personal Weather Stations






























Interactive Weather Map New forecast layout! Learn more

10-Day Weather Forecast

Advertisements
Track Severe Weather on mobile